sensor_id;sensor_type;location;lat;lon;timestamp;pressure;altitude;pressure_sealevel;temperature;humidity
75681;BME280;64294;49.176;16.626;2022-10-19T00:00:25;100160.88;;;12.38;87.94
75681;BME280;64294;49.176;16.626;2022-10-19T00:02:51;100161.94;;;12.35;88.76
75681;BME280;64294;49.176;16.626;2022-10-19T00:05:16;100159.94;;;12.30;88.72
75681;BME280;64294;49.176;16.626;2022-10-19T00:07:42;100164.63;;;12.22;88.77
75681;BME280;64294;49.176;16.626;2022-10-19T00:10:07;100163.63;;;12.20;88.89
75681;BME280;64294;49.176;16.626;2022-10-19T00:12:33;100160.41;;;12.10;89.13
75681;BME280;64294;49.176;16.626;2022-10-19T00:14:58;100160.47;;;12.04;89.26
75681;BME280;64294;49.176;16.626;2022-10-19T00:17:24;100164.88;;;12.00;89.38
75681;BME280;64294;49.176;16.626;2022-10-19T00:19:49;100162.41;;;11.91;89.65
75681;BME280;64294;49.176;16.626;2022-10-19T00:22:15;100163.50;;;11.82;89.55
75681;BME280;64294;49.176;16.626;2022-10-19T00:24:40;100161.44;;;11.82;90.07
75681;BME280;64294;49.176;16.626;2022-10-19T00:27:05;100170.22;;;11.73;89.76
75681;BME280;64294;49.176;16.626;2022-10-19T00:29:31;100164.34;;;11.71;89.19
75681;BME280;64294;49.176;16.626;2022-10-19T00:31:56;100161.31;;;11.64;89.38
75681;BME280;64294;49.176;16.626;2022-10-19T00:34:22;100155.22;;;11.60;89.51
75681;BME280;64294;49.176;16.626;2022-10-19T00:36:47;100153.75;;;11.53;89.60
75681;BME280;64294;49.176;16.626;2022-10-19T00:39:14;100145.84;;;11.46;90.04
75681;BME280;64294;49.176;16.626;2022-10-19T00:41:40;100146.94;;;11.37;90.17
75681;BME280;64294;49.176;16.626;2022-10-19T00:46:40;100148.78;;;11.29;90.09
75681;BME280;64294;49.176;16.626;2022-10-19T00:49:13;100135.03;;;11.20;90.44
75681;BME280;64294;49.176;16.626;2022-10-19T00:51:41;100142.25;;;11.10;90.71
75681;BME280;64294;49.176;16.626;2022-10-19T00:54:08;100148.22;;;10.95;91.34
75681;BME280;64294;49.176;16.626;2022-10-19T00:56:34;100160.31;;;10.84;91.33
75681;BME280;64294;49.176;16.626;2022-10-19T00:59:03;100149.03;;;10.90;91.66
75681;BME280;64294;49.176;16.626;2022-10-19T01:01:30;100164.34;;;10.95;91.89
75681;BME280;64294;49.176;16.626;2022-10-19T01:04:00;100160.75;;;10.94;91.89
75681;BME280;64294;49.176;16.626;2022-10-19T01:06:27;100160.72;;;11.05;91.50
75681;BME280;64294;49.176;16.626;2022-10-19T01:08:52;100154.59;;;11.01;91.46
75681;BME280;64294;49.176;16.626;2022-10-19T01:11:27;100152.56;;;11.02;91.30
75681;BME280;64294;49.176;16.626;2022-10-19T01:16:36;100164.88;;;10.93;91.79
75681;BME280;64294;49.176;16.626;2022-10-19T01:21:46;100175.50;;;11.11;91.46
75681;BME280;64294;49.176;16.626;2022-10-19T01:30:08;100171.78;;;11.33;90.27
75681;BME280;64294;49.176;16.626;2022-10-19T01:35:33;100170.56;;;11.23;90.45
75681;BME280;64294;49.176;16.626;2022-10-19T01:38:06;100161.91;;;11.15;90.55
75681;BME280;64294;49.176;16.626;2022-10-19T01:41:02;100169.19;;;11.00;90.87
75681;BME280;64294;49.176;16.626;2022-10-19T01:43:43;100166.63;;;10.96;90.89
75681;BME280;64294;49.176;16.626;2022-10-19T01:46:21;100177.44;;;10.86;90.95
75681;BME280;64294;49.176;16.626;2022-10-19T01:48:55;100179.25;;;10.78;91.22
75681;BME280;64294;49.176;16.626;2022-10-19T01:51:28;100184.88;;;10.78;91.58
75681;BME280;64294;49.176;16.626;2022-10-19T01:54:00;100183.66;;;10.68;91.83
75681;BME280;64294;49.176;16.626;2022-10-19T01:56:29;100194.94;;;10.63;91.88
75681;BME280;64294;49.176;16.626;2022-10-19T01:58:57;100182.41;;;10.64;92.52
75681;BME280;64294;49.176;16.626;2022-10-19T02:01:27;100182.34;;;10.75;92.64
75681;BME280;64294;49.176;16.626;2022-10-19T02:03:55;100181.50;;;10.91;91.86
75681;BME280;64294;49.176;16.626;2022-10-19T02:06:21;100181.44;;;11.02;91.23
75681;BME280;64294;49.176;16.626;2022-10-19T02:08:49;100175.78;;;11.08;91.19
75681;BME280;64294;49.176;16.626;2022-10-19T02:11:16;100176.06;;;11.04;90.82
75681;BME280;64294;49.176;16.626;2022-10-19T02:13:42;100176.88;;;10.99;90.74
75681;BME280;64294;49.176;16.626;2022-10-19T02:16:15;100166.47;;;10.83;90.86
75681;BME280;64294;49.176;16.626;2022-10-19T02:18:46;100166.03;;;10.68;91.29
75681;BME280;64294;49.176;16.626;2022-10-19T02:21:13;100157.09;;;10.64;91.86
75681;BME280;64294;49.176;16.626;2022-10-19T02:23:38;100155.59;;;10.51;91.99
75681;BME280;64294;49.176;16.626;2022-10-19T02:26:05;100152.56;;;10.38;92.50
75681;BME280;64294;49.176;16.626;2022-10-19T02:28:31;100145.97;;;10.30;92.89
75681;BME280;64294;49.176;16.626;2022-10-19T02:30:57;100142.91;;;10.17;93.02
75681;BME280;64294;49.176;16.626;2022-10-19T02:33:23;100150.31;;;10.14;93.14
75681;BME280;64294;49.176;16.626;2022-10-19T02:35:49;100151.09;;;10.15;93.71
75681;BME280;64294;49.176;16.626;2022-10-19T02:38:18;100161.56;;;10.03;93.93
75681;BME280;64294;49.176;16.626;2022-10-19T02:40:53;100165.94;;;9.98;94.34
75681;BME280;64294;49.176;16.626;2022-10-19T02:43:23;100163.13;;;9.98;94.70
75681;BME280;64294;49.176;16.626;2022-10-19T02:45:57;100154.69;;;9.98;94.46
75681;BME280;64294;49.176;16.626;2022-10-19T02:48:26;100144.22;;;10.05;94.65
75681;BME280;64294;49.176;16.626;2022-10-19T02:50:53;100141.94;;;9.97;94.63
75681;BME280;64294;49.176;16.626;2022-10-19T02:53:18;100154.19;;;9.94;94.51
75681;BME280;64294;49.176;16.626;2022-10-19T02:55:47;100148.59;;;9.89;95.28
75681;BME280;64294;49.176;16.626;2022-10-19T02:58:13;100154.44;;;9.85;95.21
75681;BME280;64294;49.176;16.626;2022-10-19T03:00:38;100149.09;;;9.82;95.06
75681;BME280;64294;49.176;16.626;2022-10-19T03:03:03;100158.53;;;9.84;95.38
75681;BME280;64294;49.176;16.626;2022-10-19T03:05:29;100158.28;;;9.77;95.28
75681;BME280;64294;49.176;16.626;2022-10-19T03:07:54;100151.41;;;9.72;95.01
75681;BME280;64294;49.176;16.626;2022-10-19T03:10:19;100146.59;;;9.67;95.14
75681;BME280;64294;49.176;16.626;2022-10-19T03:12:45;100153.72;;;9.68;95.96
75681;BME280;64294;49.176;16.626;2022-10-19T03:15:14;100146.31;;;9.59;96.10
75681;BME280;64294;49.176;16.626;2022-10-19T03:17:40;100149.63;;;9.69;96.14
75681;BME280;64294;49.176;16.626;2022-10-19T03:20:06;100145.53;;;9.59;95.88
75681;BME280;64294;49.176;16.626;2022-10-19T03:22:32;100138.41;;;9.47;95.74
75681;BME280;64294;49.176;16.626;2022-10-19T03:24:57;100147.84;;;9.32;96.49
75681;BME280;64294;49.176;16.626;2022-10-19T03:27:22;100143.22;;;9.24;96.25
75681;BME280;64294;49.176;16.626;2022-10-19T03:29:50;100139.41;;;9.21;96.61
75681;BME280;64294;49.176;16.626;2022-10-19T03:32:16;100129.22;;;9.18;96.78
75681;BME280;64294;49.176;16.626;2022-10-19T03:34:41;100134.56;;;9.16;96.83
75681;BME280;64294;49.176;16.626;2022-10-19T03:37:06;100122.59;;;9.21;98.05
75681;BME280;64294;49.176;16.626;2022-10-19T03:39:33;100118.72;;;9.07;97.54
75681;BME280;64294;49.176;16.626;2022-10-19T03:41:58;100115.94;;;9.02;97.69
75681;BME280;64294;49.176;16.626;2022-10-19T03:44:23;100123.03;;;8.92;97.39
75681;BME280;64294;49.176;16.626;2022-10-19T03:46:49;100122.78;;;8.90;98.02
75681;BME280;64294;49.176;16.626;2022-10-19T03:49:14;100125.88;;;8.97;97.55
75681;BME280;64294;49.176;16.626;2022-10-19T03:51:39;100117.47;;;9.03;97.72
75681;BME280;64294;49.176;16.626;2022-10-19T03:54:10;100123.56;;;9.07;97.77
75681;BME280;64294;49.176;16.626;2022-10-19T03:56:36;100123.84;;;9.03;97.96
75681;BME280;64294;49.176;16.626;2022-10-19T03:59:03;100131.72;;;8.99;98.09
75681;BME280;64294;49.176;16.626;2022-10-19T04:01:34;100126.38;;;9.01;98.47
75681;BME280;64294;49.176;16.626;2022-10-19T04:04:02;100124.84;;;9.06;97.97
75681;BME280;64294;49.176;16.626;2022-10-19T04:06:31;100132.50;;;9.00;97.82
75681;BME280;64294;49.176;16.626;2022-10-19T04:08:57;100127.66;;;8.95;97.96
75681;BME280;64294;49.176;16.626;2022-10-19T04:11:25;100124.59;;;8.93;98.15
75681;BME280;64294;49.176;16.626;2022-10-19T04:13:52;100126.34;;;8.85;98.36
75681;BME280;64294;49.176;16.626;2022-10-19T04:16:19;100128.63;;;8.92;98.28
75681;BME280;64294;49.176;16.626;2022-10-19T04:18:44;100135.25;;;8.77;98.62
75681;BME280;64294;49.176;16.626;2022-10-19T04:23:44;100132.91;;;8.65;98.05
75681;BME280;64294;49.176;16.626;2022-10-19T04:26:10;100128.06;;;8.65;98.66
75681;BME280;64294;49.176;16.626;2022-10-19T04:28:35;100130.63;;;8.63;99.39
75681;BME280;64294;49.176;16.626;2022-10-19T04:31:02;100137.75;;;8.64;99.53
75681;BME280;64294;49.176;16.626;2022-10-19T04:33:27;100142.09;;;8.65;99.53
75681;BME280;64294;49.176;16.626;2022-10-19T04:36:03;100144.69;;;8.74;99.68
75681;BME280;64294;49.176;16.626;2022-10-19T04:38:30;100137.03;;;8.75;99.97
75681;BME280;64294;49.176;16.626;2022-10-19T04:41:00;100151.31;;;8.77;100.00
75681;BME280;64294;49.176;16.626;2022-10-19T04:43:27;100143.41;;;8.75;99.96
75681;BME280;64294;49.176;16.626;2022-10-19T04:45:52;100141.81;;;8.63;99.76
75681;BME280;64294;49.176;16.626;2022-10-19T04:48:17;100147.19;;;8.67;99.75
75681;BME280;64294;49.176;16.626;2022-10-19T04:50:43;100146.66;;;8.63;100.00
75681;BME280;64294;49.176;16.626;2022-10-19T04:53:08;100136.22;;;8.63;100.00
75681;BME280;64294;49.176;16.626;2022-10-19T04:55:33;100138.47;;;8.54;100.00
75681;BME280;64294;49.176;16.626;2022-10-19T04:58:03;100130.06;;;8.54;100.00
75681;BME280;64294;49.176;16.626;2022-10-19T05:00:29;100133.84;;;8.45;100.00
75681;BME280;64294;49.176;16.626;2022-10-19T05:02:54;100131.00;;;8.34;100.00
75681;BME280;64294;49.176;16.626;2022-10-19T05:05:19;100139.88;;;8.32;100.00
75681;BME280;64294;49.176;16.626;2022-10-19T05:07:47;100137.56;;;8.31;100.00
75681;BME280;64294;49.176;16.626;2022-10-19T05:10:13;100140.88;;;8.24;100.00
75681;BME280;64294;49.176;16.626;2022-10-19T05:12:38;100136.53;;;8.23;100.00
75681;BME280;64294;49.176;16.626;2022-10-19T05:15:07;100137.53;;;8.19;100.00
75681;BME280;64294;49.176;16.626;2022-10-19T05:17:32;100129.59;;;8.12;100.00
75681;BME280;64294;49.176;16.626;2022-10-19T05:19:58;100129.59;;;8.12;100.00
75681;BME280;64294;49.176;16.626;2022-10-19T05:22:23;100121.97;;;8.13;100.00
75681;BME280;64294;49.176;16.626;2022-10-19T05:24:48;100128.81;;;8.06;100.00
75681;BME280;64294;49.176;16.626;2022-10-19T05:27:14;100116.59;;;8.09;100.00
75681;BME280;64294;49.176;16.626;2022-10-19T05:29:39;100118.13;;;8.10;100.00
75681;BME280;64294;49.176;16.626;2022-10-19T05:32:04;100114.31;;;8.08;100.00
75681;BME280;64294;49.176;16.626;2022-10-19T05:34:30;100127.03;;;8.09;100.00
75681;BME280;64294;49.176;16.626;2022-10-19T05:36:55;100120.44;;;8.12;100.00
75681;BME280;64294;49.176;16.626;2022-10-19T05:39:21;100119.69;;;8.17;100.00
75681;BME280;64294;49.176;16.626;2022-10-19T05:41:47;100128.38;;;8.25;100.00
75681;BME280;64294;49.176;16.626;2022-10-19T05:44:15;100126.38;;;8.31;100.00
75681;BME280;64294;49.176;16.626;2022-10-19T05:46:40;100131.84;;;8.51;100.00
75681;BME280;64294;49.176;16.626;2022-10-19T05:49:06;100138.00;;;8.72;100.00
75681;BME280;64294;49.176;16.626;2022-10-19T05:51:31;100130.16;;;8.87;100.00
75681;BME280;64294;49.176;16.626;2022-10-19T05:53:57;100134.28;;;9.03;100.00
75681;BME280;64294;49.176;16.626;2022-10-19T05:56:25;100137.91;;;9.54;100.00
75681;BME280;64294;49.176;16.626;2022-10-19T05:58:51;100142.91;;;10.28;98.90
75681;BME280;64294;49.176;16.626;2022-10-19T06:01:17;100145.22;;;12.19;95.16
75681;BME280;64294;49.176;16.626;2022-10-19T06:03:43;100142.97;;;13.81;82.59
75681;BME280;64294;49.176;16.626;2022-10-19T06:06:09;100145.22;;;15.35;71.88
75681;BME280;64294;49.176;16.626;2022-10-19T06:08:36;100148.72;;;16.69;64.94
75681;BME280;64294;49.176;16.626;2022-10-19T06:13:30;100156.56;;;18.41;58.63
75681;BME280;64294;49.176;16.626;2022-10-19T06:15:55;100160.09;;;19.13;55.43
75681;BME280;64294;49.176;16.626;2022-10-19T06:18:20;100159.06;;;19.65;52.42
75681;BME280;64294;49.176;16.626;2022-10-19T06:20:50;100162.38;;;19.54;53.45
75681;BME280;64294;49.176;16.626;2022-10-19T06:23:15;100164.81;;;19.50;53.41
75681;BME280;64294;49.176;16.626;2022-10-19T06:25:40;100152.06;;;19.84;51.24
75681;BME280;64294;49.176;16.626;2022-10-19T06:28:06;100162.25;;;21.06;48.64
75681;BME280;64294;49.176;16.626;2022-10-19T06:30:31;100156.00;;;22.08;45.30
75681;BME280;64294;49.176;16.626;2022-10-19T06:32:58;100160.13;;;23.20;45.15
75681;BME280;64294;49.176;16.626;2022-10-19T06:35:23;100162.41;;;23.12;42.27
75681;BME280;64294;49.176;16.626;2022-10-19T06:37:48;100165.94;;;24.23;40.81
75681;BME280;64294;49.176;16.626;2022-10-19T06:40:14;100163.75;;;23.81;40.69
75681;BME280;64294;49.176;16.626;2022-10-19T06:42:39;100172.53;;;24.57;38.99
75681;BME280;64294;49.176;16.626;2022-10-19T06:45:08;100179.31;;;25.27;37.16
75681;BME280;64294;49.176;16.626;2022-10-19T06:47:34;100170.41;;;26.15;36.85
75681;BME280;64294;49.176;16.626;2022-10-19T06:50:02;100164.16;;;25.95;35.34
75681;BME280;64294;49.176;16.626;2022-10-19T06:52:27;100157.47;;;27.39;34.36
75681;BME280;64294;49.176;16.626;2022-10-19T06:54:53;100163.13;;;27.37;33.75
75681;BME280;64294;49.176;16.626;2022-10-19T06:57:18;100166.47;;;27.98;32.59
75681;BME280;64294;49.176;16.626;2022-10-19T06:59:43;100166.66;;;27.88;32.06
75681;BME280;64294;49.176;16.626;2022-10-19T07:02:10;100163.91;;;27.90;31.66
75681;BME280;64294;49.176;16.626;2022-10-19T07:04:36;100156.75;;;29.35;29.95
75681;BME280;64294;49.176;16.626;2022-10-19T07:07:01;100164.13;;;29.38;28.92
75681;BME280;64294;49.176;16.626;2022-10-19T07:09:27;100153.63;;;29.60;28.94
75681;BME280;64294;49.176;16.626;2022-10-19T07:11:52;100168.53;;;30.33;27.53
75681;BME280;64294;49.176;16.626;2022-10-19T07:14:17;100155.59;;;30.36;27.70
75681;BME280;64294;49.176;16.626;2022-10-19T07:16:43;100164.31;;;30.70;26.35
75681;BME280;64294;49.176;16.626;2022-10-19T07:19:08;100168.66;;;29.11;28.82
75681;BME280;64294;49.176;16.626;2022-10-19T07:21:33;100162.69;;;29.68;28.25
75681;BME280;64294;49.176;16.626;2022-10-19T07:24:05;100162.19;;;30.21;27.97
75681;BME280;64294;49.176;16.626;2022-10-19T07:26:30;100167.31;;;31.08;26.53
75681;BME280;64294;49.176;16.626;2022-10-19T07:28:57;100168.06;;;31.08;26.36
75681;BME280;64294;49.176;16.626;2022-10-19T07:31:23;100163.06;;;32.04;25.21
75681;BME280;64294;49.176;16.626;2022-10-19T07:33:57;100156.50;;;32.03;24.92
75681;BME280;64294;49.176;16.626;2022-10-19T07:36:23;100154.56;;;32.93;23.71
75681;BME280;64294;49.176;16.626;2022-10-19T07:38:49;100157.47;;;32.93;23.48
75681;BME280;64294;49.176;16.626;2022-10-19T07:41:17;100154.03;;;31.76;24.97
75681;BME280;64294;49.176;16.626;2022-10-19T07:43:44;100150.81;;;32.91;23.68
75681;BME280;64294;49.176;16.626;2022-10-19T07:46:12;100155.38;;;33.89;22.61
75681;BME280;64294;49.176;16.626;2022-10-19T07:48:38;100156.72;;;33.62;23.12
75681;BME280;64294;49.176;16.626;2022-10-19T07:51:06;100163.47;;;34.19;22.49
75681;BME280;64294;49.176;16.626;2022-10-19T07:53:32;100162.16;;;33.26;23.31
75681;BME280;64294;49.176;16.626;2022-10-19T07:56:12;100161.25;;;32.54;24.04
75681;BME280;64294;49.176;16.626;2022-10-19T07:58:39;100162.63;;;32.95;23.58
75681;BME280;64294;49.176;16.626;2022-10-19T08:01:06;100164.13;;;33.41;23.04
75681;BME280;64294;49.176;16.626;2022-10-19T08:03:33;100172.34;;;33.97;22.44
75681;BME280;64294;49.176;16.626;2022-10-19T08:06:00;100165.94;;;32.23;23.99
75681;BME280;64294;49.176;16.626;2022-10-19T08:08:26;100167.97;;;32.80;23.47
75681;BME280;64294;49.176;16.626;2022-10-19T08:10:51;100167.03;;;34.97;21.01
75681;BME280;64294;49.176;16.626;2022-10-19T08:13:17;100174.88;;;35.20;20.47
75681;BME280;64294;49.176;16.626;2022-10-19T08:15:42;100163.50;;;31.96;24.62
75681;BME280;64294;49.176;16.626;2022-10-19T08:18:07;100161.88;;;32.94;23.61
75681;BME280;64294;49.176;16.626;2022-10-19T08:20:33;100169.88;;;33.39;22.72
75681;BME280;64294;49.176;16.626;2022-10-19T08:22:58;100176.59;;;32.78;22.98
75681;BME280;64294;49.176;16.626;2022-10-19T08:25:24;100175.94;;;30.70;26.19
75681;BME280;64294;49.176;16.626;2022-10-19T08:27:49;100172.25;;;28.39;29.20
75681;BME280;64294;49.176;16.626;2022-10-19T08:30:15;100176.81;;;30.41;27.00
75681;BME280;64294;49.176;16.626;2022-10-19T08:32:40;100182.00;;;27.91;30.57
75681;BME280;64294;49.176;16.626;2022-10-19T08:35:06;100181.00;;;25.42;34.53
75681;BME280;64294;49.176;16.626;2022-10-19T08:37:31;100178.97;;;27.50;31.89
75681;BME280;64294;49.176;16.626;2022-10-19T08:39:56;100178.50;;;29.36;28.51
75681;BME280;64294;49.176;16.626;2022-10-19T08:42:32;100170.59;;;27.67;31.48
75681;BME280;64294;49.176;16.626;2022-10-19T08:47:59;100171.44;;;29.09;29.12
75681;BME280;64294;49.176;16.626;2022-10-19T08:50:42;100169.78;;;27.39;29.90
75681;BME280;64294;49.176;16.626;2022-10-19T08:55:51;100169.56;;;27.74;28.48
75681;BME280;64294;49.176;16.626;2022-10-19T09:03:51;100173.53;;;28.93;26.71
75681;BME280;64294;49.176;16.626;2022-10-19T09:06:26;100164.41;;;30.72;23.69
75681;BME280;64294;49.176;16.626;2022-10-19T09:08:54;100165.88;;;32.21;21.96
75681;BME280;64294;49.176;16.626;2022-10-19T09:11:32;100165.41;;;32.49;21.65
75681;BME280;64294;49.176;16.626;2022-10-19T09:14:05;100169.50;;;33.05;20.20
75681;BME280;64294;49.176;16.626;2022-10-19T09:16:35;100169.13;;;29.82;24.48
75681;BME280;64294;49.176;16.626;2022-10-19T09:19:01;100173.75;;;28.97;25.70
75681;BME280;64294;49.176;16.626;2022-10-19T09:21:43;100160.78;;;29.75;24.83
75681;BME280;64294;49.176;16.626;2022-10-19T09:24:53;100177.03;;;32.49;21.53
75681;BME280;64294;49.176;16.626;2022-10-19T09:27:24;100166.78;;;33.33;21.01
75681;BME280;64294;49.176;16.626;2022-10-19T09:29:54;100175.31;;;34.79;19.02
75681;BME280;64294;49.176;16.626;2022-10-19T09:32:44;100170.53;;;34.36;19.31
75681;BME280;64294;49.176;16.626;2022-10-19T09:35:26;100173.88;;;32.21;20.82
75681;BME280;64294;49.176;16.626;2022-10-19T09:37:53;100179.09;;;31.12;21.81
75681;BME280;64294;49.176;16.626;2022-10-19T09:40:30;100169.31;;;31.21;21.93
75681;BME280;64294;49.176;16.626;2022-10-19T09:42:56;100176.44;;;31.00;22.88
75681;BME280;64294;49.176;16.626;2022-10-19T09:45:40;100183.16;;;28.98;25.39
75681;BME280;64294;49.176;16.626;2022-10-19T09:48:24;100172.78;;;28.22;26.71
75681;BME280;64294;49.176;16.626;2022-10-19T09:51:00;100170.94;;;26.72;28.06
75681;BME280;64294;49.176;16.626;2022-10-19T09:53:27;100174.56;;;27.88;26.56
75681;BME280;64294;49.176;16.626;2022-10-19T09:58:25;100178.06;;;29.41;24.05
75681;BME280;64294;49.176;16.626;2022-10-19T10:00:53;100174.84;;;28.76;24.08
75681;BME280;64294;49.176;16.626;2022-10-19T10:03:36;100175.78;;;28.81;25.06
75681;BME280;64294;49.176;16.626;2022-10-19T10:06:13;100177.03;;;27.80;25.39
75681;BME280;64294;49.176;16.626;2022-10-19T10:08:45;100176.00;;;28.14;25.75
75681;BME280;64294;49.176;16.626;2022-10-19T10:11:14;100184.41;;;27.69;26.55
75681;BME280;64294;49.176;16.626;2022-10-19T10:13:42;100174.72;;;29.47;24.02
75681;BME280;64294;49.176;16.626;2022-10-19T10:16:14;100174.19;;;28.78;24.63
75681;BME280;64294;49.176;16.626;2022-10-19T10:18:54;100161.59;;;27.22;25.89
75681;BME280;64294;49.176;16.626;2022-10-19T10:26:28;100171.41;;;26.19;27.22
75681;BME280;64294;49.176;16.626;2022-10-19T10:28:54;100167.13;;;26.32;27.18
75681;BME280;64294;49.176;16.626;2022-10-19T10:31:28;100169.16;;;26.30;26.89
75681;BME280;64294;49.176;16.626;2022-10-19T10:33:59;100168.16;;;28.44;24.00
75681;BME280;64294;49.176;16.626;2022-10-19T10:36:27;100162.97;;;30.39;21.99
75681;BME280;64294;49.176;16.626;2022-10-19T10:39:00;100164.34;;;28.26;23.64
75681;BME280;64294;49.176;16.626;2022-10-19T10:41:28;100153.41;;;27.83;24.82
75681;BME280;64294;49.176;16.626;2022-10-19T10:43:59;100149.47;;;26.75;26.81
75681;BME280;64294;49.176;16.626;2022-10-19T10:46:49;100150.97;;;28.76;24.63
75681;BME280;64294;49.176;16.626;2022-10-19T10:49:20;100141.31;;;28.85;25.17
75681;BME280;64294;49.176;16.626;2022-10-19T10:51:55;100149.13;;;27.45;25.14
75681;BME280;64294;49.176;16.626;2022-10-19T10:54:23;100137.19;;;25.44;28.11
75681;BME280;64294;49.176;16.626;2022-10-19T10:57:12;100150.69;;;23.49;30.90
75681;BME280;64294;49.176;16.626;2022-10-19T11:02:34;100148.81;;;22.45;32.92
75681;BME280;64294;49.176;16.626;2022-10-19T11:05:30;100145.38;;;21.54;34.32
75681;BME280;64294;49.176;16.626;2022-10-19T11:10:42;100151.94;;;20.76;34.47
75681;BME280;64294;49.176;16.626;2022-10-19T11:13:26;100150.63;;;21.48;33.72
75681;BME280;64294;49.176;16.626;2022-10-19T11:18:52;100135.72;;;26.99;26.38
75681;BME280;64294;49.176;16.626;2022-10-19T11:32:36;100124.78;;;29.01;21.54
75681;BME280;64294;49.176;16.626;2022-10-19T11:49:01;100137.75;;;23.79;28.62
75681;BME280;64294;49.176;16.626;2022-10-19T11:51:50;100144.88;;;22.31;31.27
75681;BME280;64294;49.176;16.626;2022-10-19T11:57:22;100123.84;;;23.35;30.47
75681;BME280;64294;49.176;16.626;2022-10-19T12:02:53;100130.09;;;22.15;31.95
75681;BME280;64294;49.176;16.626;2022-10-19T12:05:27;100139.19;;;21.85;32.43
75681;BME280;64294;49.176;16.626;2022-10-19T12:11:09;100137.84;;;21.86;32.76
75681;BME280;64294;49.176;16.626;2022-10-19T12:14:00;100135.31;;;21.26;33.61
75681;BME280;64294;49.176;16.626;2022-10-19T12:16:34;100134.28;;;22.04;32.05
75681;BME280;64294;49.176;16.626;2022-10-19T12:19:03;100129.97;;;21.76;31.71
75681;BME280;64294;49.176;16.626;2022-10-19T12:21:33;100128.88;;;21.08;33.12
75681;BME280;64294;49.176;16.626;2022-10-19T12:24:02;100125.41;;;20.31;34.34
75681;BME280;64294;49.176;16.626;2022-10-19T12:26:30;100128.50;;;19.83;35.71
75681;BME280;64294;49.176;16.626;2022-10-19T12:29:01;100133.03;;;20.63;34.48
75681;BME280;64294;49.176;16.626;2022-10-19T12:31:28;100127.81;;;21.67;32.81
75681;BME280;64294;49.176;16.626;2022-10-19T12:36:41;100136.38;;;20.17;34.26
75681;BME280;64294;49.176;16.626;2022-10-19T12:42:21;100145.03;;;18.01;37.39
75681;BME280;64294;49.176;16.626;2022-10-19T12:45:09;100143.88;;;17.51;39.33
75681;BME280;64294;49.176;16.626;2022-10-19T12:47:39;100131.91;;;17.37;39.10
75681;BME280;64294;49.176;16.626;2022-10-19T12:50:04;100132.72;;;17.83;37.72
75681;BME280;64294;49.176;16.626;2022-10-19T12:52:44;100131.19;;;18.05;37.67
75681;BME280;64294;49.176;16.626;2022-10-19T12:57:45;100124.28;;;19.02;35.70
75681;BME280;64294;49.176;16.626;2022-10-19T13:00:21;100118.34;;;19.08;35.67
75681;BME280;64294;49.176;16.626;2022-10-19T13:03:19;100112.84;;;19.67;34.44
75681;BME280;64294;49.176;16.626;2022-10-19T13:05:41;100109.16;;;19.49;34.55
75681;BME280;64294;49.176;16.626;2022-10-19T13:08:08;100106.47;;;20.01;34.25
75681;BME280;64294;49.176;16.626;2022-10-19T13:10:33;100103.44;;;19.99;34.25
75681;BME280;64294;49.176;16.626;2022-10-19T13:12:59;100106.47;;;20.18;33.27
75681;BME280;64294;49.176;16.626;2022-10-19T13:18:59;100123.34;;;20.24;34.52
75681;BME280;64294;49.176;16.626;2022-10-19T13:20:52;100128.78;;;19.95;35.12
75681;BME280;64294;49.176;16.626;2022-10-19T13:26:32;100117.72;;;18.84;37.00
75681;BME280;64294;49.176;16.626;2022-10-19T13:28:58;100118.47;;;18.14;38.08
75681;BME280;64294;49.176;16.626;2022-10-19T13:31:26;100121.69;;;18.03;38.76
75681;BME280;64294;49.176;16.626;2022-10-19T13:33:53;100121.50;;;17.55;38.89
75681;BME280;64294;49.176;16.626;2022-10-19T13:36:19;100124.63;;;17.06;39.79
75681;BME280;64294;49.176;16.626;2022-10-19T13:38:47;100128.94;;;16.91;39.66
75681;BME280;64294;49.176;16.626;2022-10-19T13:41:44;100136.34;;;17.02;39.13
75681;BME280;64294;49.176;16.626;2022-10-19T13:50:05;100132.47;;;17.36;38.37
75681;BME280;64294;49.176;16.626;2022-10-19T13:52:48;100131.69;;;17.20;39.08
75681;BME280;64294;49.176;16.626;2022-10-19T13:55:26;100134.09;;;17.01;39.74
75681;BME280;64294;49.176;16.626;2022-10-19T13:58:30;100114.47;;;16.67;40.61
75681;BME280;64294;49.176;16.626;2022-10-19T14:01:05;100117.28;;;16.30;39.87
75681;BME280;64294;49.176;16.626;2022-10-19T14:03:52;100130.84;;;16.24;40.71
75681;BME280;64294;49.176;16.626;2022-10-19T14:09:14;100125.59;;;16.00;41.30
75681;BME280;64294;49.176;16.626;2022-10-19T14:11:44;100123.31;;;16.27;40.50
75681;BME280;64294;49.176;16.626;2022-10-19T14:14:17;100112.81;;;16.79;39.48
75681;BME280;64294;49.176;16.626;2022-10-19T14:16:52;100113.63;;;17.02;38.33
75681;BME280;64294;49.176;16.626;2022-10-19T14:19:24;100109.09;;;16.99;38.81
75681;BME280;64294;49.176;16.626;2022-10-19T14:21:53;100102.16;;;17.31;37.88
75681;BME280;64294;49.176;16.626;2022-10-19T14:24:33;100095.91;;;17.47;38.56
75681;BME280;64294;49.176;16.626;2022-10-19T14:27:01;100099.91;;;17.60;38.94
75681;BME280;64294;49.176;16.626;2022-10-19T14:29:27;100108.03;;;17.33;39.41
75681;BME280;64294;49.176;16.626;2022-10-19T14:31:53;100110.81;;;17.10;39.96
75681;BME280;64294;49.176;16.626;2022-10-19T14:34:18;100107.75;;;17.00;39.89
75681;BME280;64294;49.176;16.626;2022-10-19T14:36:46;100105.38;;;16.68;40.70